PWSweather.com
Personal Weather Stations
Station Observations
KB2SBX
Sugarloaf, Sugarloaf, PA 18249

SugarloafSugarloaf, PA 18249

Lat: 41.0126685, Lon: -76.1082041

Elevation: 1030

Station Type: WS-2080

http://sugarloafpaweather.webng.com/weather.shtml

Latest ConditionsUpdated 12:10:00 PM EDT Thursday, Mar 23, 2017
Currently Today's Max Today's Min Today's Average
Temperature 32.2°F0.1°C 32.2°F0.1°C 15.4°F-9.2°C 20.4°F-6.4°C
Dew Point 2.0°F-16.7°C 7.1°F-13.8°C -6.4°F-21.3°C -1.0°F-18.3°C
Winds 0.7 mph SE1.1 kmh SE 4.5 mph ENE7.2 kmh ENE - 0.9 mph 1.4 kmh
Wind Gusts 6.0 mph9.7 kmh 9.2 mph14.8 kmh - -
Humidity 27% 50% 27% 39%
Pressure 30.30 in1026.1 mb 30.59 in1035.9 mb 30.29 in1025.7 mb -
Hour Temp Dew Point Humidity Winds Wind Gusts Pressure Precip Precip Rate Daily Precip Total
12:10 PM 32.2°F0.1°C 2.0°F-16.7°C 27% 0.7 mph SE1.1 kmh SE 6.0 mph9.7 kmh 30.30 in1026.1 mb 0.00 in0.0 mm 0.00 in0.0 mm 0.00 in0.0 mm
12:00 PM 31.1°F-0.5°C 1.9°F-16.7°C 28% 0.7 mph E1.1 kmh E 3.8 mph6.1 kmh 30.29 in1025.7 mb 0.00 in0.0 mm 0.00 in0.0 mm 0.00 in0.0 mm
11:50 AM 30.4°F-0.9°C 1.2°F-17.1°C 28% 0.7 mph NNW1.1 kmh NNW 4.5 mph7.2 kmh 30.31 in1026.4 mb 0.00 in0.0 mm 0.00 in0.0 mm 0.00 in0.0 mm
11:40 AM 30.4°F-0.9°C 2.0°F-16.7°C 29% 1.6 mph NNW2.6 kmh NNW 7.6 mph12.2 kmh 30.34 in1027.4 mb 0.00 in0.0 mm 0.00 in0.0 mm 0.00 in0.0 mm
11:30 AM 31.1°F-0.5°C 4.0°F-15.6°C 31% 4.5 mph ENE7.2 kmh ENE 7.6 mph12.2 kmh 30.36 in1028.1 mb 0.00 in0.0 mm 0.00 in0.0 mm 0.00 in0.0 mm
11:20 AM 30.9°F-0.6°C 7.1°F-13.8°C 36% Calm Calm 3.8 mph6.1 kmh 30.37 in1028.4 mb 0.00 in0.0 mm 0.00 in0.0 mm 0.00 in0.0 mm
11:10 AM 28.8°F-1.8°C 5.8°F-14.6°C 37% 0.7 mph E1.1 kmh E 5.4 mph8.7 kmh 30.36 in1028.1 mb 0.00 in0.0 mm 0.00 in0.0 mm 0.00 in0.0 mm
11:00 AM 27.7°F-2.4°C 0.4°F-17.6°C 30% 0.7 mph E1.1 kmh E 5.4 mph8.7 kmh 30.35 in1027.8 mb 0.00 in0.0 mm 0.00 in0.0 mm 0.00 in0.0 mm
10:50 AM 28.0°F-2.2°C 4.0°F-15.6°C 35% 0.7 mph SE1.1 kmh SE 5.4 mph8.7 kmh 30.34 in1027.4 mb 0.00 in0.0 mm 0.00 in0.0 mm 0.00 in0.0 mm
10:40 AM 26.1°F-3.3°C 2.8°F-16.2°C 36% 2.2 mph E3.5 kmh E 5.4 mph8.7 kmh 30.33 in1027.1 mb 0.00 in0.0 mm 0.00 in0.0 mm 0.00 in0.0 mm
10:30 AM 25.3°F-3.7°C 2.8°F-16.2°C 37% 0.7 mph E1.1 kmh E 5.4 mph8.7 kmh 30.32 in1026.8 mb 0.00 in0.0 mm 0.00 in0.0 mm 0.00 in0.0 mm
10:20 AM 24.8°F-4.0°C 3.4°F-15.9°C 39% 2.2 mph WSW3.5 kmh WSW 5.4 mph8.7 kmh 30.31 in1026.4 mb 0.00 in0.0 mm 0.00 in0.0 mm 0.00 in0.0 mm
10:10 AM 24.4°F-4.2°C 3.6°F-15.8°C 40% 0.7 mph ESE1.1 kmh ESE 3.8 mph6.1 kmh 30.31 in1026.4 mb 0.00 in0.0 mm 0.00 in0.0 mm 0.00 in0.0 mm
10:00 AM 23.7°F-4.6°C 3.5°F-15.8°C 41% 2.2 mph E3.5 kmh E 9.2 mph14.8 kmh 30.32 in1026.8 mb 0.00 in0.0 mm 0.00 in0.0 mm 0.00 in0.0 mm
09:50 AM 23.2°F-4.9°C 3.0°F-16.1°C 41% 1.6 mph E2.6 kmh E 5.4 mph8.7 kmh 30.36 in1028.1 mb 0.00 in0.0 mm 0.00 in0.0 mm 0.00 in0.0 mm
09:40 AM 23.2°F-4.9°C 3.6°F-15.8°C 42% 3.1 mph NNE5.0 kmh NNE 4.5 mph7.2 kmh 30.37 in1028.4 mb 0.00 in0.0 mm 0.00 in0.0 mm 0.00 in0.0 mm
09:30 AM 22.6°F-5.2°C 3.6°F-15.8°C 43% 1.6 mph N2.6 kmh N 4.5 mph7.2 kmh 30.36 in1028.1 mb 0.00 in0.0 mm 0.00 in0.0 mm 0.00 in0.0 mm
09:20 AM 22.5°F-5.3°C 3.9°F-15.6°C 44% 0.7 mph NNW1.1 kmh NNW 3.8 mph6.1 kmh 30.34 in1027.4 mb 0.00 in0.0 mm 0.00 in0.0 mm 0.00 in0.0 mm
09:10 AM 22.3°F-5.4°C 3.7°F-15.7°C 44% 0.7 mph SW1.1 kmh SW 3.1 mph5.0 kmh 30.33 in1027.1 mb 0.00 in0.0 mm 0.00 in0.0 mm 0.00 in0.0 mm
09:00 AM 21.7°F-5.7°C 3.2°F-16.0°C 44% Calm Calm 3.1 mph5.0 kmh 30.32 in1026.8 mb 0.00 in0.0 mm 0.00 in0.0 mm 0.00 in0.0 mm
08:50 AM 21.6°F-5.8°C 3.6°F-15.8°C 45% Calm Calm 1.6 mph2.6 kmh 30.30 in1026.1 mb 0.00 in0.0 mm 0.00 in0.0 mm 0.00 in0.0 mm
08:40 AM 20.5°F-6.4°C 4.0°F-15.6°C 48% 0.7 mph S1.1 kmh S 3.1 mph5.0 kmh 30.30 in1026.1 mb 0.00 in0.0 mm 0.00 in0.0 mm 0.00 in0.0 mm
08:30 AM 19.4°F-7.0°C 3.9°F-15.6°C 50% Calm Calm 2.2 mph3.5 kmh 30.30 in1026.1 mb 0.00 in0.0 mm 0.00 in0.0 mm 0.00 in0.0 mm
08:20 AM 17.8°F-7.9°C 1.5°F-16.9°C 48% Calm Calm 3.1 mph5.0 kmh 30.32 in1026.8 mb 0.00 in0.0 mm 0.00 in0.0 mm 0.00 in0.0 mm
08:10 AM 16.5°F-8.6°C 0.8°F-17.3°C 49% Calm Calm 1.6 mph2.6 kmh 30.34 in1027.4 mb 0.00 in0.0 mm 0.00 in0.0 mm 0.00 in0.0 mm
08:00 AM 15.8°F-9.0°C -0.3°F-17.9°C 48% Calm Calm -- 30.33 in1027.1 mb 0.00 in0.0 mm 0.00 in0.0 mm 0.00 in0.0 mm
07:50 AM 15.6°F-9.1°C -0.1°F-17.8°C 49% Calm Calm -- 30.31 in1026.4 mb 0.00 in0.0 mm 0.00 in0.0 mm 0.00 in0.0 mm
07:40 AM 15.4°F-9.2°C -0.2°F-17.9°C 49% Calm Calm 0.7 mph1.1 kmh 30.30 in1026.1 mb 0.00 in0.0 mm 0.00 in0.0 mm 0.00 in0.0 mm
07:30 AM 15.4°F-9.2°C -0.2°F-17.9°C 49% Calm Calm 0.7 mph1.1 kmh 30.30 in1026.1 mb 0.00 in0.0 mm 0.00 in0.0 mm 0.00 in0.0 mm
07:20 AM 15.4°F-9.2°C -1.1°F-18.4°C 47% Calm Calm 0.7 mph1.1 kmh 30.33 in1027.1 mb 0.00 in0.0 mm 0.00 in0.0 mm 0.00 in0.0 mm
07:10 AM 15.6°F-9.1°C -1.4°F-18.6°C 46% Calm Calm -- 30.37 in1028.4 mb 0.00 in0.0 mm 0.00 in0.0 mm 0.00 in0.0 mm
07:00 AM 16.3°F-8.7°C -1.2°F-18.4°C 45% Calm Calm -- 30.42 in1030.1 mb 0.00 in0.0 mm 0.00 in0.0 mm 0.00 in0.0 mm
06:50 AM 16.7°F-8.5°C -1.3°F-18.5°C 44% Calm Calm 0.7 mph1.1 kmh 30.47 in1031.8 mb 0.00 in0.0 mm 0.00 in0.0 mm 0.00 in0.0 mm
06:40 AM 17.1°F-8.3°C -1.0°F-18.3°C 44% Calm Calm 1.6 mph2.6 kmh 30.51 in1033.2 mb 0.00 in0.0 mm 0.00 in0.0 mm 0.00 in0.0 mm
06:30 AM 17.2°F-8.2°C -1.3°F-18.5°C 43% Calm Calm 0.7 mph1.1 kmh 30.50 in1032.8 mb 0.00 in0.0 mm 0.00 in0.0 mm 0.00 in0.0 mm
06:20 AM 17.8°F-7.9°C -2.4°F-19.1°C 40% Calm Calm 1.6 mph2.6 kmh 30.48 in1032.2 mb 0.00 in0.0 mm 0.00 in0.0 mm 0.00 in0.0 mm
06:10 AM 18.0°F-7.8°C -2.2°F-19.0°C 40% Calm Calm 2.2 mph3.5 kmh 30.45 in1031.2 mb 0.00 in0.0 mm 0.00 in0.0 mm 0.00 in0.0 mm
06:00 AM 18.1°F-7.7°C -2.0°F-18.9°C 40% 0.7 mph SE1.1 kmh SE 4.5 mph7.2 kmh 30.44 in1030.8 mb 0.00 in0.0 mm 0.00 in0.0 mm 0.00 in0.0 mm
05:50 AM 18.3°F-7.6°C -2.4°F-19.1°C 39% Calm Calm 4.5 mph7.2 kmh 30.43 in1030.5 mb 0.00 in0.0 mm 0.00 in0.0 mm 0.00 in0.0 mm
05:40 AM 18.1°F-7.7°C -2.6°F-19.2°C 39% 0.7 mph WNW1.1 kmh WNW 3.1 mph5.0 kmh 30.45 in1031.2 mb 0.00 in0.0 mm 0.00 in0.0 mm 0.00 in0.0 mm
05:30 AM 18.5°F-7.5°C -2.3°F-19.1°C 39% 0.7 mph NNW1.1 kmh NNW 3.8 mph6.1 kmh 30.50 in1032.8 mb 0.00 in0.0 mm 0.00 in0.0 mm 0.00 in0.0 mm
05:20 AM 18.5°F-7.5°C -2.3°F-19.1°C 39% Calm Calm 6.0 mph9.7 kmh 30.51 in1033.2 mb 0.00 in0.0 mm 0.00 in0.0 mm 0.00 in0.0 mm
05:10 AM 18.1°F-7.7°C -2.6°F-19.2°C 39% 3.1 mph NNW5.0 kmh NNW 6.0 mph9.7 kmh 30.53 in1033.9 mb 0.00 in0.0 mm 0.00 in0.0 mm 0.00 in0.0 mm
05:00 AM 18.5°F-7.5°C -2.8°F-19.3°C 38% 2.2 mph N3.5 kmh N 3.8 mph6.1 kmh 30.57 in1035.2 mb 0.00 in0.0 mm 0.00 in0.0 mm 0.00 in0.0 mm
04:50 AM 18.5°F-7.5°C -2.8°F-19.3°C 38% 3.1 mph N5.0 kmh N 3.8 mph6.1 kmh 30.57 in1035.2 mb 0.00 in0.0 mm 0.00 in0.0 mm 0.00 in0.0 mm
04:40 AM 18.3°F-7.6°C -3.0°F-19.4°C 38% 1.6 mph NW2.6 kmh NW 5.4 mph8.7 kmh 30.56 in1034.9 mb 0.00 in0.0 mm 0.00 in0.0 mm 0.00 in0.0 mm
04:30 AM 18.5°F-7.5°C -2.8°F-19.3°C 38% 0.7 mph W1.1 kmh W 6.9 mph11.1 kmh 30.55 in1034.5 mb 0.00 in0.0 mm 0.00 in0.0 mm 0.00 in0.0 mm
04:20 AM 18.3°F-7.6°C -3.0°F-19.4°C 38% 2.2 mph NW3.5 kmh NW 6.9 mph11.1 kmh 30.54 in1034.2 mb 0.00 in0.0 mm 0.00 in0.0 mm 0.00 in0.0 mm
04:10 AM 18.5°F-7.5°C -2.8°F-19.3°C 38% 0.7 mph NNW1.1 kmh NNW 5.4 mph8.7 kmh 30.53 in1033.9 mb 0.00 in0.0 mm 0.00 in0.0 mm 0.00 in0.0 mm
04:00 AM 18.5°F-7.5°C -2.8°F-19.3°C 38% 3.1 mph NW5.0 kmh NW 5.4 mph8.7 kmh 30.56 in1034.9 mb 0.00 in0.0 mm 0.00 in0.0 mm 0.00 in0.0 mm
03:50 AM 18.1°F-7.7°C -3.1°F-19.5°C 38% 3.1 mph W5.0 kmh W 4.5 mph7.2 kmh 30.58 in1035.6 mb 0.00 in0.0 mm 0.00 in0.0 mm 0.00 in0.0 mm
03:40 AM 18.1°F-7.7°C -3.1°F-19.5°C 38% Calm Calm 3.1 mph5.0 kmh 30.59 in1035.9 mb 0.00 in0.0 mm 0.00 in0.0 mm 0.00 in0.0 mm
03:30 AM 18.5°F-7.5°C -2.8°F-19.3°C 38% Calm Calm 3.8 mph6.1 kmh 30.58 in1035.6 mb 0.00 in0.0 mm 0.00 in0.0 mm 0.00 in0.0 mm
03:20 AM 18.5°F-7.5°C -2.8°F-19.3°C 38% 0.7 mph NW1.1 kmh NW 6.0 mph9.7 kmh 30.57 in1035.2 mb 0.00 in0.0 mm 0.00 in0.0 mm 0.00 in0.0 mm
03:10 AM 18.5°F-7.5°C -3.4°F-19.7°C 37% Calm Calm 9.2 mph14.8 kmh 30.57 in1035.2 mb 0.00 in0.0 mm 0.00 in0.0 mm 0.00 in0.0 mm
03:00 AM 18.7°F-7.4°C -4.3°F-20.2°C 35% 0.7 mph WSW1.1 kmh WSW 5.4 mph8.7 kmh 30.56 in1034.9 mb 0.00 in0.0 mm 0.00 in0.0 mm 0.00 in0.0 mm
02:50 AM 18.7°F-7.4°C -4.9°F-20.5°C 34% Calm Calm 7.6 mph12.2 kmh 30.55 in1034.5 mb 0.00 in0.0 mm 0.00 in0.0 mm 0.00 in0.0 mm
02:40 AM 18.7°F-7.4°C -4.3°F-20.2°C 35% 1.6 mph W2.6 kmh W 6.9 mph11.1 kmh 30.55 in1034.5 mb 0.00 in0.0 mm 0.00 in0.0 mm 0.00 in0.0 mm
02:30 AM 18.7°F-7.4°C -4.3°F-20.2°C 35% Calm Calm 6.0 mph9.7 kmh 30.53 in1033.9 mb 0.00 in0.0 mm 0.00 in0.0 mm 0.00 in0.0 mm
02:20 AM 18.7°F-7.4°C -4.3°F-20.2°C 35% Calm Calm 6.9 mph11.1 kmh 30.53 in1033.9 mb 0.00 in0.0 mm 0.00 in0.0 mm 0.00 in0.0 mm
02:10 AM 18.7°F-7.4°C -3.8°F-19.9°C 36% 2.2 mph WNW3.5 kmh WNW 3.8 mph6.1 kmh 30.52 in1033.5 mb 0.00 in0.0 mm 0.00 in0.0 mm 0.00 in0.0 mm
02:00 AM 18.3°F-7.6°C -3.0°F-19.4°C 38% 2.2 mph NNW3.5 kmh NNW 4.5 mph7.2 kmh 30.51 in1033.2 mb 0.00 in0.0 mm 0.00 in0.0 mm 0.00 in0.0 mm
01:50 AM 18.3°F-7.6°C -4.1°F-20.1°C 36% 1.6 mph N2.6 kmh N 3.8 mph6.1 kmh 30.51 in1033.2 mb 0.00 in0.0 mm 0.00 in0.0 mm 0.00 in0.0 mm
01:40 AM 18.5°F-7.5°C -3.9°F-19.9°C 36% Calm Calm 3.8 mph6.1 kmh 30.50 in1032.8 mb 0.00 in0.0 mm 0.00 in0.0 mm 0.00 in0.0 mm
01:30 AM 18.5°F-7.5°C -3.9°F-19.9°C 36% 0.7 mph WNW1.1 kmh WNW 4.5 mph7.2 kmh 30.49 in1032.5 mb 0.00 in0.0 mm 0.00 in0.0 mm 0.00 in0.0 mm
01:20 AM 18.5°F-7.5°C -3.9°F-19.9°C 36% 3.1 mph WSW5.0 kmh WSW 6.9 mph11.1 kmh 30.48 in1032.2 mb 0.00 in0.0 mm 0.00 in0.0 mm 0.00 in0.0 mm
01:10 AM 18.7°F-7.4°C -4.9°F-20.5°C 34% 0.7 mph SSE1.1 kmh SSE 2.2 mph3.5 kmh 30.47 in1031.8 mb 0.00 in0.0 mm 0.00 in0.0 mm 0.00 in0.0 mm
01:00 AM 18.9°F-7.3°C -5.4°F-20.8°C 33% Calm Calm 3.1 mph5.0 kmh 30.46 in1031.5 mb 0.00 in0.0 mm 0.00 in0.0 mm 0.00 in0.0 mm
12:50 AM 19.0°F-7.2°C -5.2°F-20.7°C 33% Calm Calm 3.8 mph6.1 kmh 30.45 in1031.2 mb 0.00 in0.0 mm 0.00 in0.0 mm 0.00 in0.0 mm
12:40 AM 19.0°F-7.2°C -5.9°F-21.1°C 32% Calm Calm 1.6 mph2.6 kmh 30.45 in1031.2 mb 0.00 in0.0 mm 0.00 in0.0 mm 0.00 in0.0 mm
12:30 AM 19.0°F-7.2°C -5.9°F-21.1°C 32% 0.7 mph E1.1 kmh E 1.6 mph2.6 kmh 30.43 in1030.5 mb 0.00 in0.0 mm 0.00 in0.0 mm 0.00 in0.0 mm
12:20 AM 19.0°F-7.2°C -5.9°F-21.1°C 32% Calm Calm 4.5 mph7.2 kmh 30.43 in1030.5 mb 0.00 in0.0 mm 0.00 in0.0 mm 0.00 in0.0 mm
12:10 AM 19.2°F-7.1°C -6.4°F-21.3°C 31% Calm Calm 2.2 mph3.5 kmh 30.42 in1030.1 mb 0.00 in0.0 mm 0.00 in0.0 mm 0.00 in0.0 mm
12:00 AM 19.6°F-6.9°C -4.1°F-20.1°C 34% 0.7 mph ESE1.1 kmh ESE 3.1 mph5.0 kmh 30.41 in1029.8 mb 0.00 in0.0 mm 0.00 in0.0 mm 0.00 in0.0 mm